createdAt,value
2022-11-17T00:01:19.767Z,13.70
2022-11-17T00:03:50.297Z,13.70
2022-11-17T00:06:17.749Z,13.70
2022-11-17T00:08:44.539Z,13.70
2022-11-17T00:11:11.435Z,13.60
2022-11-17T00:13:57.091Z,13.70
2022-11-17T00:16:23.887Z,13.60
2022-11-17T00:19:09.572Z,13.70
2022-11-17T00:21:36.482Z,13.60
2022-11-17T00:24:03.300Z,13.70
2022-11-17T00:26:31.486Z,13.60
2022-11-17T00:29:00.225Z,13.60
2022-11-17T00:31:47.289Z,13.60
2022-11-17T00:34:15.817Z,13.60
2022-11-17T00:36:43.902Z,13.60
2022-11-17T00:39:11.450Z,13.20
2022-11-17T00:41:38.355Z,13.60
2022-11-17T00:44:05.347Z,13.60
2022-11-17T00:46:32.487Z,13.60
2022-11-17T00:48:59.355Z,13.60
2022-11-17T00:51:26.576Z,13.50
2022-11-17T00:53:53.428Z,13.50
2022-11-17T00:56:20.300Z,13.50
2022-11-17T00:58:47.096Z,13.50
2022-11-17T01:01:14.482Z,13.50
2022-11-17T01:03:41.424Z,13.50
2022-11-17T01:06:09.658Z,13.50
2022-11-17T01:08:36.687Z,13.50
2022-11-17T01:11:07.423Z,13.50
2022-11-17T01:13:34.630Z,13.40
2022-11-17T01:16:02.511Z,13.40
2022-11-17T01:18:30.386Z,13.40
2022-11-17T01:21:02.644Z,13.40
2022-11-17T01:23:29.496Z,13.30
2022-11-17T01:26:01.098Z,13.30
2022-11-17T01:28:27.902Z,13.30
2022-11-17T01:31:02.078Z,13.30
2022-11-17T01:33:29.174Z,13.30
2022-11-17T01:35:56.261Z,13.30
2022-11-17T01:38:23.188Z,13.30
2022-11-17T01:40:49.982Z,13.40
2022-11-17T01:43:17.018Z,13.30
2022-11-17T01:45:44.078Z,13.30
2022-11-17T01:48:12.560Z,13.30
2022-11-17T01:50:40.186Z,13.30
2022-11-17T01:53:08.895Z,13.30
2022-11-17T01:55:38.089Z,13.30
2022-11-17T01:58:10.588Z,13.30
2022-11-17T02:00:37.480Z,13.20
2022-11-17T02:03:07.325Z,13.30
2022-11-17T02:05:41.800Z,13.30
2022-11-17T02:08:09.307Z,13.30
2022-11-17T02:10:36.379Z,13.30
2022-11-17T02:13:03.542Z,13.30
2022-11-17T02:18:19.741Z,13.30
2022-11-17T02:21:05.401Z,13.30
2022-11-17T02:23:32.353Z,13.30
2022-11-17T02:26:08.085Z,13.20
2022-11-17T02:28:36.120Z,13.20
2022-11-17T02:31:02.943Z,13.20
2022-11-17T02:33:47.080Z,13.20
2022-11-17T02:36:31.412Z,13.20
2022-11-17T02:38:58.244Z,13.20
2022-11-17T02:41:28.397Z,13.20
2022-11-17T02:44:04.774Z,13.20
2022-11-17T02:46:51.918Z,13.20
2022-11-17T02:49:18.695Z,13.10
2022-11-17T02:51:46.458Z,13.20
2022-11-17T02:54:13.416Z,13.20
2022-11-17T02:56:40.984Z,13.20
2022-11-17T02:59:07.954Z,13.10
2022-11-17T03:01:44.114Z,13.10
2022-11-17T03:04:10.836Z,13.20
2022-11-17T03:06:40.649Z,13.10
2022-11-17T03:09:18.772Z,13.10
2022-11-17T03:11:48.384Z,13.10
2022-11-17T03:14:20.351Z,13.10
2022-11-17T03:17:01.220Z,13.10
2022-11-17T03:19:31.519Z,13.10
2022-11-17T03:22:12.771Z,13.00
2022-11-17T03:24:53.464Z,13.00
2022-11-17T03:27:21.995Z,13.10
2022-11-17T03:29:51.003Z,13.00
2022-11-17T03:32:18.136Z,13.10
2022-11-17T03:34:48.060Z,13.00
2022-11-17T03:37:17.115Z,13.00
2022-11-17T03:39:46.402Z,13.00
2022-11-17T03:42:15.855Z,13.10
2022-11-17T03:44:44.380Z,13.10
2022-11-17T03:47:13.053Z,13.00
2022-11-17T03:49:39.861Z,13.00
2022-11-17T03:52:07.089Z,13.00
2022-11-17T03:54:34.592Z,13.00
2022-11-17T03:57:04.343Z,13.00
2022-11-17T03:59:36.627Z,13.20
2022-11-17T04:02:03.570Z,13.00
2022-11-17T04:04:50.444Z,13.10
2022-11-17T04:07:17.346Z,13.00
2022-11-17T04:09:44.137Z,13.10
2022-11-17T04:12:29.735Z,13.00
2022-11-17T04:15:15.301Z,13.00
2022-11-17T04:17:42.345Z,13.00
2022-11-17T04:20:09.596Z,13.00
2022-11-17T04:22:36.438Z,13.00
2022-11-17T04:25:03.290Z,13.00
2022-11-17T04:27:48.878Z,13.00
2022-11-17T04:30:15.658Z,12.90
2022-11-17T04:32:42.459Z,12.90
2022-11-17T04:35:09.214Z,12.90
2022-11-17T04:37:35.968Z,12.50
2022-11-17T04:40:02.853Z,12.90
2022-11-17T04:42:29.641Z,12.90
2022-11-17T04:44:56.441Z,12.90
2022-11-17T04:47:25.681Z,12.90
2022-11-17T04:49:55.447Z,12.80
2022-11-17T04:52:29.563Z,12.90
2022-11-17T04:54:56.762Z,12.90
2022-11-17T04:57:31.130Z,12.90
2022-11-17T04:59:58.144Z,12.80
2022-11-17T05:02:25.009Z,12.80
2022-11-17T05:04:57.522Z,12.80
2022-11-17T05:07:24.414Z,12.80
2022-11-17T05:09:51.301Z,12.80
2022-11-17T05:12:36.812Z,12.80
2022-11-17T05:15:03.655Z,12.80
2022-11-17T05:17:33.043Z,12.80
2022-11-17T05:20:03.372Z,12.80
2022-11-17T05:22:48.923Z,12.80
2022-11-17T05:25:15.837Z,12.80
2022-11-17T05:27:43.691Z,12.80
2022-11-17T05:30:11.222Z,12.90
2022-11-17T05:32:38.212Z,12.80
2022-11-17T05:35:05.315Z,12.90
2022-11-17T05:37:32.112Z,12.60
2022-11-17T05:39:58.953Z,12.80
2022-11-17T05:42:25.942Z,12.90
2022-11-17T05:44:52.799Z,12.50
2022-11-17T05:47:19.698Z,12.80
2022-11-17T05:49:46.521Z,12.80
2022-11-17T05:52:18.225Z,12.80
2022-11-17T05:54:45.282Z,12.70
2022-11-17T05:57:14.564Z,12.80
2022-11-17T05:59:43.872Z,12.80
2022-11-17T06:02:13.699Z,12.80
2022-11-17T06:04:40.660Z,12.80
2022-11-17T06:07:08.360Z,12.70
2022-11-17T06:09:36.888Z,12.80
2022-11-17T06:12:06.235Z,12.80
2022-11-17T06:14:34.277Z,12.80
2022-11-17T06:17:06.629Z,12.70
2022-11-17T06:19:36.872Z,12.80
2022-11-17T06:22:12.258Z,12.80
2022-11-17T06:24:40.917Z,12.70
2022-11-17T06:27:07.828Z,12.70
2022-11-17T06:29:38.218Z,12.70
2022-11-17T06:32:07.881Z,12.80
2022-11-17T06:34:35.186Z,12.70
2022-11-17T06:37:02.152Z,12.80
2022-11-17T06:39:29.006Z,12.80
2022-11-17T06:41:56.163Z,12.80
2022-11-17T06:44:22.993Z,12.80
2022-11-17T06:46:49.925Z,12.80
2022-11-17T06:54:05.420Z,12.80
2022-11-17T06:56:55.107Z,12.90
2022-11-17T06:59:20.165Z,12.80
2022-11-17T07:01:47.125Z,12.80
2022-11-17T07:04:14.132Z,12.80
2022-11-17T07:06:40.921Z,12.80
2022-11-17T07:09:07.799Z,12.90
2022-11-17T07:11:36.301Z,12.80
2022-11-17T07:14:03.337Z,12.80
2022-11-17T07:16:32.780Z,12.90
2022-11-17T07:19:00.110Z,12.90
2022-11-17T07:21:26.992Z,12.90
2022-11-17T07:23:53.861Z,12.90
2022-11-17T07:26:20.788Z,12.90
2022-11-17T07:28:47.760Z,12.90
2022-11-17T07:31:14.631Z,12.90
2022-11-17T07:33:41.638Z,12.70
2022-11-17T07:36:09.972Z,13.00
2022-11-17T07:38:38.191Z,12.90
2022-11-17T07:41:06.075Z,13.00
2022-11-17T07:43:33.321Z,13.00
2022-11-17T07:46:03.490Z,13.00
2022-11-17T07:48:30.430Z,13.00
2022-11-17T07:51:00.936Z,13.00
2022-11-17T07:53:28.234Z,13.10
2022-11-17T07:55:57.718Z,13.10
2022-11-17T07:58:41.582Z,13.10
2022-11-17T08:08:18.179Z,13.20
2022-11-17T08:11:20.788Z,13.20
2022-11-17T08:13:51.559Z,13.30
2022-11-17T08:16:21.548Z,13.20
2022-11-17T08:18:56.108Z,13.30
2022-11-17T08:21:37.285Z,13.30
2022-11-17T08:24:08.625Z,12.80
2022-11-17T08:26:35.779Z,13.30
2022-11-17T08:29:02.714Z,13.30
2022-11-17T08:31:41.447Z,13.30
2022-11-17T08:34:23.232Z,13.40
2022-11-17T08:37:05.800Z,13.30
2022-11-17T08:42:46.827Z,13.30
2022-11-17T08:48:20.727Z,13.40
2022-11-17T08:51:15.628Z,13.40
2022-11-17T08:53:48.568Z,13.40
2022-11-17T08:56:31.044Z,13.40
2022-11-17T08:59:19.658Z,13.20
2022-11-17T09:11:29.395Z,13.50
2022-11-17T09:16:53.666Z,13.40
2022-11-17T09:19:30.387Z,13.60
2022-11-17T09:24:47.382Z,13.50
2022-11-17T09:33:40.335Z,13.50
2022-11-17T09:36:15.595Z,13.50
2022-11-17T09:42:03.766Z,13.50
2022-11-17T09:48:07.049Z,13.50
2022-11-17T09:51:00.691Z,13.30
2022-11-17T09:56:57.028Z,13.50
2022-11-17T09:59:38.605Z,13.50
2022-11-17T10:02:12.778Z,13.40
2022-11-17T10:23:07.385Z,13.70
2022-11-17T10:26:22.870Z,13.70
2022-11-17T10:37:39.671Z,13.70
2022-11-17T10:40:30.702Z,13.70
2022-11-17T13:11:41.832Z,14.30
2022-11-17T13:18:21.049Z,14.10
2022-11-17T13:24:48.435Z,14.30
2022-11-17T13:30:42.170Z,14.40
2022-11-17T13:33:40.411Z,14.30
2022-11-17T13:36:28.033Z,14.30
2022-11-17T13:39:02.376Z,14.60
2022-11-17T13:41:37.380Z,14.40
2022-11-17T13:44:19.757Z,14.40
2022-11-17T13:47:05.007Z,14.50
2022-11-17T13:49:35.290Z,14.40
2022-11-17T13:52:03.208Z,14.50
2022-11-17T13:54:30.326Z,14.40
2022-11-17T13:57:08.160Z,14.50
2022-11-17T13:59:36.783Z,14.50
2022-11-17T14:02:16.235Z,14.50
2022-11-17T14:12:20.246Z,14.50
2022-11-17T14:15:04.513Z,14.50
2022-11-17T14:20:47.793Z,14.50
2022-11-17T14:23:28.394Z,14.50
2022-11-17T14:31:58.073Z,14.20
2022-11-17T14:34:24.954Z,14.40
2022-11-17T14:36:53.483Z,14.40
2022-11-17T14:39:20.635Z,14.50
2022-11-17T14:41:55.163Z,14.50
2022-11-17T14:44:24.616Z,14.40
2022-11-17T14:46:51.919Z,14.40
2022-11-17T14:49:21.352Z,14.50
2022-11-17T14:51:52.640Z,14.10
2022-11-17T14:54:22.204Z,14.50
2022-11-17T14:56:57.042Z,14.50
2022-11-17T15:02:18.251Z,14.50
2022-11-17T15:04:53.262Z,14.50
2022-11-17T15:07:25.341Z,14.40
2022-11-17T15:09:52.674Z,14.40
2022-11-17T15:12:20.618Z,14.40
2022-11-17T15:15:00.585Z,14.40
2022-11-17T15:17:55.201Z,14.40
2022-11-17T15:23:04.703Z,14.40
2022-11-17T15:25:53.944Z,14.20
2022-11-17T15:28:29.115Z,14.40
2022-11-17T15:30:58.299Z,14.30
2022-11-17T15:33:25.448Z,14.30
2022-11-17T15:36:07.827Z,14.30
2022-11-17T15:38:35.489Z,14.20
2022-11-17T15:41:02.650Z,14.30
2022-11-17T15:43:30.828Z,14.30
2022-11-17T15:46:03.047Z,14.20
2022-11-17T15:48:31.893Z,14.20
2022-11-17T15:50:59.594Z,14.20
2022-11-17T15:53:43.593Z,14.20
2022-11-17T15:56:11.882Z,14.50
2022-11-17T15:58:42.154Z,14.10
2022-11-17T16:01:14.614Z,14.10
2022-11-17T16:03:42.975Z,14.00
2022-11-17T16:06:10.396Z,14.10
2022-11-17T16:08:37.859Z,14.10
2022-11-17T16:11:05.346Z,14.00
2022-11-17T16:13:32.676Z,14.00
2022-11-17T16:15:59.633Z,14.00
2022-11-17T16:18:26.690Z,14.00
2022-11-17T16:20:53.925Z,14.00
2022-11-17T16:23:20.958Z,14.00
2022-11-17T16:25:48.557Z,14.00
2022-11-17T16:28:29.334Z,14.00
2022-11-17T16:34:29.892Z,13.50
2022-11-17T16:36:58.791Z,14.00
2022-11-17T16:39:32.315Z,13.90
2022-11-17T16:42:00.245Z,14.00
2022-11-17T16:44:27.224Z,13.90
2022-11-17T16:46:54.325Z,14.00
2022-11-17T16:49:21.362Z,13.90
2022-11-17T16:51:52.584Z,14.00
2022-11-17T16:54:19.743Z,14.00
2022-11-17T16:56:46.822Z,13.90
2022-11-17T16:59:14.138Z,14.00
2022-11-17T17:01:41.413Z,13.90
2022-11-17T17:04:09.268Z,13.90
2022-11-17T17:06:38.694Z,13.80
2022-11-17T17:09:08.963Z,14.00
2022-11-17T17:11:39.139Z,13.90
2022-11-17T17:14:10.072Z,13.90
2022-11-17T17:16:38.577Z,13.80
2022-11-17T17:19:06.874Z,13.90
2022-11-17T17:21:34.444Z,13.90
2022-11-17T17:24:01.383Z,13.90
2022-11-17T17:26:29.646Z,13.90
2022-11-17T17:31:50.567Z,13.90
2022-11-17T17:34:17.764Z,13.90
2022-11-17T17:36:47.436Z,13.90
2022-11-17T17:39:17.563Z,13.90
2022-11-17T17:41:51.547Z,13.90
2022-11-17T17:44:21.900Z,13.90
2022-11-17T17:47:02.359Z,13.80
2022-11-17T17:49:33.487Z,13.90
2022-11-17T18:04:52.951Z,13.90
2022-11-17T18:07:34.143Z,14.00
2022-11-17T18:10:41.905Z,13.80
2022-11-17T18:13:29.163Z,13.60
2022-11-17T18:19:07.623Z,14.00
2022-11-17T18:21:35.099Z,13.90
2022-11-17T18:24:23.161Z,13.80
2022-11-17T18:27:09.925Z,14.00
2022-11-17T18:30:11.973Z,13.90
2022-11-17T18:32:42.247Z,13.80
2022-11-17T18:35:11.559Z,13.90
2022-11-17T18:37:38.300Z,13.90
2022-11-17T18:40:05.399Z,13.80
2022-11-17T18:42:35.516Z,13.90
2022-11-17T18:45:05.132Z,13.90
2022-11-17T18:47:32.014Z,13.90
2022-11-17T18:52:41.536Z,13.90
2022-11-17T18:55:08.552Z,13.90
2022-11-17T18:57:40.782Z,14.00
2022-11-17T19:00:54.436Z,14.00
2022-11-17T19:03:24.941Z,14.10
2022-11-17T19:09:02.732Z,14.10
2022-11-17T19:11:33.806Z,14.10
2022-11-17T19:14:18.057Z,14.10
2022-11-17T19:16:46.072Z,14.10
2022-11-17T19:19:16.146Z,14.10
2022-11-17T19:21:57.037Z,14.50
2022-11-17T19:24:53.327Z,14.10
2022-11-17T19:27:20.449Z,14.10
2022-11-17T19:29:47.611Z,14.10
2022-11-17T19:33:05.899Z,14.20
2022-11-17T19:43:26.260Z,13.90
2022-11-17T19:51:10.856Z,13.90
2022-11-17T19:53:49.622Z,14.00
2022-11-17T19:56:33.045Z,13.90
2022-11-17T20:05:33.628Z,13.90
2022-11-17T20:09:13.404Z,13.90
2022-11-17T20:11:55.416Z,13.90
2022-11-17T20:14:56.259Z,14.00
2022-11-17T20:27:23.637Z,13.80
2022-11-17T20:29:50.668Z,13.80
2022-11-17T20:32:17.630Z,13.80
2022-11-17T20:34:53.568Z,13.70
2022-11-17T20:37:27.017Z,13.70
2022-11-17T20:40:23.575Z,13.60
2022-11-17T20:42:54.200Z,13.60
2022-11-17T20:45:23.670Z,13.60
2022-11-17T20:47:50.947Z,13.50
2022-11-17T20:55:09.199Z,13.60
2022-11-17T20:58:23.474Z,13.50
2022-11-17T21:04:09.752Z,13.40
2022-11-17T21:06:36.729Z,13.40
2022-11-17T21:09:03.858Z,13.40
2022-11-17T21:11:49.527Z,13.30
2022-11-17T21:14:17.022Z,13.30
2022-11-17T21:16:45.809Z,13.30
2022-11-17T21:19:14.276Z,13.10
2022-11-17T21:21:41.668Z,13.20
2022-11-17T21:24:09.097Z,13.30
2022-11-17T21:26:36.204Z,13.30
2022-11-17T21:29:06.933Z,13.20
2022-11-17T21:31:34.258Z,13.20
2022-11-17T21:34:02.328Z,13.20
2022-11-17T21:36:30.171Z,13.20
2022-11-17T21:38:57.198Z,13.10
2022-11-17T21:41:28.312Z,13.10
2022-11-17T21:43:57.572Z,13.10
2022-11-17T21:46:25.170Z,13.10
2022-11-17T21:48:53.027Z,13.00
2022-11-17T21:51:24.224Z,13.00
2022-11-17T21:53:55.340Z,12.90
2022-11-17T21:56:25.664Z,12.90
2022-11-17T21:58:59.721Z,12.90
2022-11-17T22:01:28.049Z,12.90
2022-11-17T22:03:55.252Z,12.90
2022-11-17T22:06:23.263Z,13.00
2022-11-17T22:08:50.416Z,12.90
2022-11-17T22:11:37.818Z,12.70
2022-11-17T22:14:06.369Z,12.80
2022-11-17T22:16:33.499Z,12.90
2022-11-17T22:19:00.401Z,12.80
2022-11-17T22:21:27.160Z,12.90
2022-11-17T22:23:54.032Z,12.80
2022-11-17T22:26:20.908Z,12.90
2022-11-17T22:28:52.363Z,13.00
2022-11-17T22:31:19.615Z,12.90
2022-11-17T22:33:46.784Z,12.90
2022-11-17T22:36:13.758Z,12.90
2022-11-17T22:38:40.547Z,12.90
2022-11-17T22:41:07.829Z,12.90
2022-11-17T22:43:34.994Z,12.90
2022-11-17T22:46:03.125Z,12.90
2022-11-17T22:48:30.215Z,12.90
2022-11-17T22:50:57.877Z,12.90
2022-11-17T22:53:24.721Z,12.90
2022-11-17T22:55:51.514Z,13.10
2022-11-17T22:58:18.535Z,13.00
2022-11-17T23:00:45.461Z,13.00
2022-11-17T23:03:12.624Z,12.90
2022-11-17T23:05:39.544Z,13.00
2022-11-17T23:08:09.770Z,13.00
2022-11-17T23:10:37.520Z,13.00
2022-11-17T23:13:04.532Z,13.00
2022-11-17T23:15:32.413Z,13.00
2022-11-17T23:17:59.345Z,13.00
2022-11-17T23:20:26.215Z,13.00
2022-11-17T23:22:54.095Z,13.10
2022-11-17T23:25:22.039Z,13.00
2022-11-17T23:27:48.839Z,13.10
2022-11-17T23:30:15.849Z,13.00
2022-11-17T23:32:43.508Z,13.00
2022-11-17T23:35:10.294Z,13.00
2022-11-17T23:37:37.313Z,13.00
2022-11-17T23:40:04.348Z,13.00
2022-11-17T23:42:32.571Z,13.00
2022-11-17T23:45:00.205Z,12.90
2022-11-17T23:47:27.166Z,12.90
2022-11-17T23:49:54.036Z,12.90
2022-11-17T23:52:20.879Z,12.90
2022-11-17T23:54:47.658Z,12.90
2022-11-17T23:57:14.560Z,12.90
2022-11-17T23:59:41.553Z,12.80
